Time;durP1;ratioP1;P1;durP2;ratioP2;P2;SDS_P1;SDS_P2;PMS_P1;PMS_P2;Temp;Humidity;BMP_temperature;BMP_pressure;BME280_temperature;BME280_humidity;BME280_pressure;Samples;Min_cycle;Max_cycle;Signal;HPM_P1;HPM_P2
2021/12/03 00:00:38;;;;;;;2.63;1.90;;;;;;;;;;5035554;28;20747;-42
2021/12/03 00:03:04;;;;;;;4.47;2.23;;;;;;;;;;5033491;28;20033;-42
2021/12/03 00:05:29;;;;;;;5.03;2.83;;;;;;;;;;4340665;28;10000898;-42
2021/12/03 00:07:55;;;;;;;2.63;1.83;;;;;;;;;;5037002;28;20152;-43
2021/12/03 00:10:23;;;;;;;3.13;1.80;;;;;;;;;;5033020;28;20033;-43
2021/12/03 00:12:48;;;;;;;4.30;2.20;;;;;;;;;;5032543;28;20040;-43
2021/12/03 00:15:14;;;;;;;4.80;3.33;;;;;;;;;;5035135;28;20029;-42
2021/12/03 00:17:39;;;;;;;4.75;2.75;;;;;;;;;;5033463;28;20032;-43
2021/12/03 00:20:07;;;;;;;2.20;1.98;;;;;;;;;;5033986;28;20045;-44
2021/12/03 00:22:32;;;;;;;3.67;2.10;;;;;;;;;;5034060;28;20041;-43
2021/12/03 00:24:57;;;;;;;2.67;2.10;;;;;;;;;;5036413;28;20045;-42
2021/12/03 00:27:23;;;;;;;2.85;2.60;;;;;;;;;;5038126;28;20431;-42
2021/12/03 00:29:48;;;;;;;2.05;1.88;;;;;;;;;;5035095;28;20036;-44
2021/12/03 00:32:13;;;;;;;5.40;2.40;;;;;;;;;;5042961;28;20578;-41
2021/12/03 00:34:38;;;;;;;2.53;2.33;;;;;;;;;;5040261;28;20523;-43
2021/12/03 00:37:04;;;;;;;3.08;2.10;;;;;;;;;;5035067;28;20033;-42
2021/12/03 00:39:29;;;;;;;3.33;2.25;;;;;;;;;;5029669;28;20048;-41
2021/12/03 00:41:59;;;;;;;5.55;2.00;;;;;;;;;;5033925;28;20033;-42
2021/12/03 00:44:25;;;;;;;3.13;2.25;;;;;;;;;;5031745;28;20041;-43
2021/12/03 00:46:51;;;;;;;2.70;1.95;;;;;;;;;;5033289;28;20044;-42
2021/12/03 00:49:16;;;;;;;3.60;2.00;;;;;;;;;;5038697;28;20037;-43
2021/12/03 00:51:41;;;;;;;2.33;1.60;;;;;;;;;;5039101;28;20520;-41
2021/12/03 00:54:07;;;;;;;3.47;2.05;;;;;;;;;;5036105;28;20767;-42
2021/12/03 00:56:32;;;;;;;1.80;1.70;;;;;;;;;;5038703;28;20120;-42
2021/12/03 00:58:57;;;;;;;4.13;1.55;;;;;;;;;;5037909;28;20225;-43
2021/12/03 01:01:23;;;;;;;2.75;1.95;;;;;;;;;;5036760;28;20088;-42
2021/12/03 01:03:48;;;;;;;3.00;1.90;;;;;;;;;;5035407;28;20132;-41
2021/12/03 01:06:13;;;;;;;2.88;2.03;;;;;;;;;;5038559;28;20396;-42
2021/12/03 01:08:39;;;;;;;2.15;1.60;;;;;;;;;;5043687;28;20033;-42
2021/12/03 01:11:05;;;;;;;3.75;1.92;;;;;;;;;;5040960;28;20507;-42
2021/12/03 01:13:30;;;;;;;5.30;2.15;;;;;;;;;;5020829;28;20033;-42
2021/12/03 01:15:56;;;;;;;2.67;2.10;;;;;;;;;;5041663;28;20029;-43
2021/12/03 01:18:21;;;;;;;2.10;1.92;;;;;;;;;;5039723;28;20098;-42
2021/12/03 01:20:46;;;;;;;1.50;1.40;;;;;;;;;;5042582;28;20505;-42
2021/12/03 01:23:12;;;;;;;3.35;2.05;;;;;;;;;;5040034;28;20037;-40
2021/12/03 01:25:38;;;;;;;3.92;2.55;;;;;;;;;;5039905;28;20071;-41
2021/12/03 01:28:04;;;;;;;3.20;2.13;;;;;;;;;;5039643;28;20044;-42
2021/12/03 01:30:30;;;;;;;4.70;1.92;;;;;;;;;;5030389;28;20036;-42
2021/12/03 01:32:57;;;;;;;5.35;1.90;;;;;;;;;;5035673;28;20503;-41
2021/12/03 01:35:22;;;;;;;3.58;1.70;;;;;;;;;;5032775;28;20110;-42
2021/12/03 01:37:48;;;;;;;4.00;1.55;;;;;;;;;;5033205;28;20509;-41
2021/12/03 01:40:16;;;;;;;1.40;1.30;;;;;;;;;;5039062;28;20579;-42
2021/12/03 01:42:44;;;;;;;1.83;1.60;;;;;;;;;;5033979;28;20029;-45
2021/12/03 01:45:10;;;;;;;3.40;1.40;;;;;;;;;;5038797;28;20051;-40
2021/12/03 01:47:36;;;;;;;5.57;1.77;;;;;;;;;;5036494;28;20033;-42
2021/12/03 01:50:02;;;;;;;5.65;2.38;;;;;;;;;;5034372;28;20045;-42
2021/12/03 01:52:27;;;;;;;3.28;1.73;;;;;;;;;;5040872;28;20053;-41
2021/12/03 01:54:53;;;;;;;2.17;1.50;;;;;;;;;;5037585;28;20048;-44
2021/12/03 01:57:19;;;;;;;2.47;2.10;;;;;;;;;;5036461;28;20033;-41
2021/12/03 01:59:44;;;;;;;2.05;1.35;;;;;;;;;;5038615;28;20122;-42
2021/12/03 02:02:09;;;;;;;2.78;1.30;;;;;;;;;;5037674;28;20140;-41
2021/12/03 02:04:35;;;;;;;1.67;1.50;;;;;;;;;;5023498;28;20120;-42
2021/12/03 02:07:00;;;;;;;1.65;1.55;;;;;;;;;;5039843;28;20033;-43
2021/12/03 02:09:26;;;;;;;1.77;1.67;;;;;;;;;;5042762;28;20476;-43
2021/12/03 02:11:51;;;;;;;2.05;1.20;;;;;;;;;;5037971;28;20033;-42
2021/12/03 02:14:17;;;;;;;4.18;1.50;;;;;;;;;;5045034;28;20037;-42
2021/12/03 02:16:45;;;;;;;1.60;1.30;;;;;;;;;;5043793;28;20037;-42
2021/12/03 02:19:10;;;;;;;2.53;1.77;;;;;;;;;;5041166;28;20352;-43
2021/12/03 02:21:36;;;;;;;3.22;1.60;;;;;;;;;;5041339;28;20473;-42
2021/12/03 02:24:01;;;;;;;1.38;1.27;;;;;;;;;;5033699;28;20128;-42
2021/12/03 02:26:26;;;;;;;2.95;1.63;;;;;;;;;;5035747;28;20033;-42
2021/12/03 02:28:51;;;;;;;3.55;1.50;;;;;;;;;;5041289;28;20647;-42
2021/12/03 02:31:18;;;;;;;1.92;1.25;;;;;;;;;;5036504;28;20037;-42
2021/12/03 02:33:43;;;;;;;2.88;1.50;;;;;;;;;;5042367;28;20044;-46
2021/12/03 02:36:09;;;;;;;3.00;1.30;;;;;;;;;;5036434;28;20041;-42
2021/12/03 02:38:34;;;;;;;1.25;1.17;;;;;;;;;;5042821;28;20927;-42
2021/12/03 02:41:00;;;;;;;4.18;1.80;;;;;;;;;;5036803;28;20030;-42
2021/12/03 02:43:25;;;;;;;2.13;1.80;;;;;;;;;;5042122;28;20036;-42
2021/12/03 02:45:52;;;;;;;2.63;2.03;;;;;;;;;;5036844;28;20029;-42
2021/12/03 02:48:18;;;;;;;3.00;1.45;;;;;;;;;;5039482;28;20033;-41
2021/12/03 02:50:43;;;;;;;3.90;1.65;;;;;;;;;;5040754;28;20055;-41
2021/12/03 02:53:08;;;;;;;3.38;1.73;;;;;;;;;;5040523;28;20071;-42
2021/12/03 02:55:33;;;;;;;1.13;1.02;;;;;;;;;;5039222;28;20021;-41
2021/12/03 02:57:59;;;;;;;1.38;1.08;;;;;;;;;;5043075;28;20110;-41
2021/12/03 03:00:25;;;;;;;2.13;1.30;;;;;;;;;;5040992;28;20563;-44
2021/12/03 03:02:51;;;;;;;1.10;1.00;;;;;;;;;;5044150;28;20060;-43
2021/12/03 03:05:17;;;;;;;1.27;1.00;;;;;;;;;;5041837;28;20061;-42
2021/12/03 03:07:42;;;;;;;0.90;0.90;;;;;;;;;;5040375;28;20838;-42
2021/12/03 03:10:09;;;;;;;1.02;0.90;;;;;;;;;;5044250;28;20037;-42
2021/12/03 03:12:35;;;;;;;1.77;1.17;;;;;;;;;;5038311;28;20065;-42
2021/12/03 03:15:01;;;;;;;1.13;0.93;;;;;;;;;;5042265;28;20072;-42
2021/12/03 03:17:28;;;;;;;1.50;1.13;;;;;;;;;;5039650;28;20103;-44
2021/12/03 03:19:54;;;;;;;3.00;1.20;;;;;;;;;;5041433;28;20045;-41
2021/12/03 03:22:20;;;;;;;0.82;0.82;;;;;;;;;;5042448;28;20043;-42
2021/12/03 03:24:45;;;;;;;1.75;1.17;;;;;;;;;;5038946;28;20078;-42
2021/12/03 03:27:11;;;;;;;1.15;0.80;;;;;;;;;;5034201;28;20056;-41
2021/12/03 03:29:36;;;;;;;2.38;0.82;;;;;;;;;;5030726;28;20128;-42
2021/12/03 03:32:02;;;;;;;3.33;1.00;;;;;;;;;;5032709;28;20041;-42
2021/12/03 03:34:27;;;;;;;1.55;1.13;;;;;;;;;;5041834;28;20542;-42
2021/12/03 03:36:53;;;;;;;2.33;1.00;;;;;;;;;;5041728;28;20045;-42
2021/12/03 03:39:19;;;;;;;1.00;0.80;;;;;;;;;;5039025;28;20060;-41
2021/12/03 03:41:45;;;;;;;1.17;0.88;;;;;;;;;;5029616;28;20038;-42
2021/12/03 03:44:10;;;;;;;1.35;0.90;;;;;;;;;;5043293;28;20094;-42
2021/12/03 03:46:37;;;;;;;0.88;0.80;;;;;;;;;;5031152;28;20056;-43
2021/12/03 03:49:03;;;;;;;1.02;0.85;;;;;;;;;;5032251;28;20052;-42
2021/12/03 03:51:28;;;;;;;1.65;0.95;;;;;;;;;;5043720;28;20025;-42
2021/12/03 03:53:53;;;;;;;2.33;0.77;;;;;;;;;;5043446;28;20087;-42
2021/12/03 03:56:18;;;;;;;1.30;1.20;;;;;;;;;;5036859;28;20040;-43
2021/12/03 03:58:44;;;;;;;2.60;0.80;;;;;;;;;;5039014;28;20049;-42
2021/12/03 04:01:10;;;;;;;2.10;0.90;;;;;;;;;;5039167;28;20555;-41
2021/12/03 04:03:36;;;;;;;1.25;0.77;;;;;;;;;;5037223;28;20064;-42
2021/12/03 04:06:01;;;;;;;1.25;0.88;;;;;;;;;;5040527;28;20021;-41
2021/12/03 04:08:29;;;;;;;2.20;0.98;;;;;;;;;;5038212;28;20457;-43
2021/12/03 04:10:54;;;;;;;0.77;0.63;;;;;;;;;;5039346;28;20037;-42
2021/12/03 04:13:20;;;;;;;2.47;0.63;;;;;;;;;;5037815;28;20401;-43
2021/12/03 04:15:45;;;;;;;0.90;0.80;;;;;;;;;;5040986;28;20075;-43
2021/12/03 04:18:10;;;;;;;1.20;1.10;;;;;;;;;;5036058;28;20470;-41
2021/12/03 04:20:36;;;;;;;2.22;1.38;;;;;;;;;;5033703;28;20481;-42
2021/12/03 04:23:01;;;;;;;1.20;0.90;;;;;;;;;;5040470;28;20485;-42
2021/12/03 04:25:26;;;;;;;1.35;1.00;;;;;;;;;;5032487;28;20088;-41
2021/12/03 04:27:52;;;;;;;0.82;0.82;;;;;;;;;;5029477;28;20091;-44
2021/12/03 04:30:19;;;;;;;0.90;0.90;;;;;;;;;;5034279;28;20044;-41
2021/12/03 04:32:45;;;;;;;1.73;0.82;;;;;;;;;;5036226;28;20026;-42
2021/12/03 04:35:10;;;;;;;2.47;0.80;;;;;;;;;;5035956;28;20043;-41
2021/12/03 04:37:35;;;;;;;2.20;0.60;;;;;;;;;;5040776;28;20468;-42
2021/12/03 04:40:01;;;;;;;1.33;0.80;;;;;;;;;;5039190;28;20080;-41
2021/12/03 04:42:26;;;;;;;0.93;0.88;;;;;;;;;;5036775;28;20029;-42
2021/12/03 04:44:52;;;;;;;0.88;0.80;;;;;;;;;;5028101;28;20697;-42
2021/12/03 04:47:17;;;;;;;1.35;1.15;;;;;;;;;;5041719;28;20036;-42
2021/12/03 04:49:42;;;;;;;1.13;1.02;;;;;;;;;;5040864;28;20041;-43
2021/12/03 04:52:07;;;;;;;1.17;0.80;;;;;;;;;;5040132;28;20065;-42
2021/12/03 04:54:33;;;;;;;1.88;0.93;;;;;;;;;;5039777;28;20036;-41
2021/12/03 04:56:58;;;;;;;1.20;1.00;;;;;;;;;;5029358;28;20072;-43
2021/12/03 04:59:24;;;;;;;0.60;0.60;;;;;;;;;;5037134;28;20057;-41
2021/12/03 05:01:53;;;;;;;0.90;0.90;;;;;;;;;;5028586;28;20034;-42
2021/12/03 05:04:19;;;;;;;0.82;0.80;;;;;;;;;;5043472;28;20052;-42
2021/12/03 05:06:55;;;;;;;1.05;0.88;;;;;;;;;;5039150;28;20779;-42
2021/12/03 05:09:22;;;;;;;2.25;0.80;;;;;;;;;;5038520;28;20037;-42
2021/12/03 05:11:47;;;;;;;0.98;0.85;;;;;;;;;;5037164;28;20059;-42
2021/12/03 05:14:13;;;;;;;1.65;0.80;;;;;;;;;;5035444;28;20778;-42
2021/12/03 05:16:38;;;;;;;0.70;0.70;;;;;;;;;;5040482;28;20037;-41
2021/12/03 05:19:03;;;;;;;0.75;0.75;;;;;;;;;;5040962;28;20060;-42
2021/12/03 05:21:28;;;;;;;1.00;0.88;;;;;;;;;;5042843;28;20473;-42
2021/12/03 05:23:54;;;;;;;3.33;0.80;;;;;;;;;;5040315;28;20061;-42
2021/12/03 05:26:19;;;;;;;2.20;0.82;;;;;;;;;;5041505;28;20033;-43
2021/12/03 05:28:44;;;;;;;2.28;0.88;;;;;;;;;;5028576;28;20584;-44
2021/12/03 05:31:10;;;;;;;0.70;0.70;;;;;;;;;;5036931;28;20468;-41
2021/12/03 05:33:35;;;;;;;0.90;0.90;;;;;;;;;;5040929;28;20029;-42
2021/12/03 05:36:00;;;;;;;1.10;0.77;;;;;;;;;;5039832;28;20091;-42
2021/12/03 05:38:25;;;;;;;1.63;1.08;;;;;;;;;;5044477;28;20082;-42
2021/12/03 05:40:51;;;;;;;1.17;0.93;;;;;;;;;;5039752;28;20029;-42
2021/12/03 05:43:17;;;;;;;1.70;1.02;;;;;;;;;;5044474;28;20082;-42
2021/12/03 05:45:42;;;;;;;1.15;0.90;;;;;;;;;;5043641;28;20073;-43
2021/12/03 05:48:07;;;;;;;1.02;1.02;;;;;;;;;;5042823;28;20509;-44
2021/12/03 05:50:33;;;;;;;2.22;0.93;;;;;;;;;;5044493;28;20744;-42
2021/12/03 05:53:00;;;;;;;2.50;0.80;;;;;;;;;;5035494;28;20041;-42
2021/12/03 05:55:25;;;;;;;0.98;0.88;;;;;;;;;;5046220;28;20044;-42
2021/12/03 05:57:50;;;;;;;0.85;0.85;;;;;;;;;;5034162;28;20026;-42
2021/12/03 06:00:21;;;;;;;1.25;1.15;;;;;;;;;;5041266;28;20393;-42
2021/12/03 06:02:46;;;;;;;0.88;0.73;;;;;;;;;;5039055;28;20033;-42
2021/12/03 06:05:11;;;;;;;1.85;1.10;;;;;;;;;;5037398;28;20451;-43
2021/12/03 06:07:37;;;;;;;0.80;0.80;;;;;;;;;;5040477;28;20132;-42
2021/12/03 06:10:03;;;;;;;3.60;1.20;;;;;;;;;;5038782;28;20091;-42
2021/12/03 06:12:28;;;;;;;1.75;0.70;;;;;;;;;;5037136;28;20130;-42
2021/12/03 06:14:54;;;;;;;0.82;0.82;;;;;;;;;;5039470;28;20481;-42
2021/12/03 06:17:19;;;;;;;0.60;0.60;;;;;;;;;;5042463;28;20040;-42
2021/12/03 06:19:44;;;;;;;1.00;1.00;;;;;;;;;;5044695;28;20195;-42
2021/12/03 06:22:10;;;;;;;1.83;1.10;;;;;;;;;;5039180;28;20558;-40
2021/12/03 06:24:36;;;;;;;1.00;1.00;;;;;;;;;;5040551;28;20036;-44
2021/12/03 06:27:01;;;;;;;1.45;1.35;;;;;;;;;;5036165;28;20108;-42
2021/12/03 06:29:26;;;;;;;1.00;1.00;;;;;;;;;;5031041;28;20310;-42
2021/12/03 06:31:52;;;;;;;2.58;1.30;;;;;;;;;;5039347;28;20489;-46
2021/12/03 06:34:17;;;;;;;2.38;1.08;;;;;;;;;;5038453;28;20116;-43
2021/12/03 06:36:42;;;;;;;1.02;0.82;;;;;;;;;;5039063;28;20072;-42
2021/12/03 06:39:08;;;;;;;1.35;1.13;;;;;;;;;;5039516;28;20832;-43
2021/12/03 06:41:33;;;;;;;1.40;1.30;;;;;;;;;;5035450;28;20163;-44
2021/12/03 06:43:58;;;;;;;1.35;1.25;;;;;;;;;;5037895;28;20030;-45
2021/12/03 06:46:23;;;;;;;1.35;1.25;;;;;;;;;;5041998;28;20041;-42
2021/12/03 06:48:49;;;;;;;2.15;1.00;;;;;;;;;;5042645;28;20029;-44
2021/12/03 06:51:14;;;;;;;1.77;1.33;;;;;;;;;;5040823;28;20119;-42
2021/12/03 06:53:46;;;;;;;2.45;1.48;;;;;;;;;;5034733;28;20634;-43
2021/12/03 06:56:20;;;;;;;1.60;1.50;;;;;;;;;;5034669;28;20604;-43
2021/12/03 06:58:46;;;;;;;2.38;1.73;;;;;;;;;;5021722;28;20048;-42
2021/12/03 07:01:11;;;;;;;1.50;1.40;;;;;;;;;;5037270;28;20055;-46
2021/12/03 07:03:37;;;;;;;6.95;1.95;;;;;;;;;;5041247;28;20025;-43
2021/12/03 07:06:02;;;;;;;2.75;1.85;;;;;;;;;;5037949;28;20180;-42
2021/12/03 07:08:27;;;;;;;2.45;2.20;;;;;;;;;;5033089;28;20033;-42
2021/12/03 07:10:52;;;;;;;4.45;2.17;;;;;;;;;;5040769;28;20409;-42
2021/12/03 07:13:18;;;;;;;2.97;2.15;;;;;;;;;;5037348;28;20151;-44
2021/12/03 07:15:43;;;;;;;3.45;2.30;;;;;;;;;;5041081;28;20394;-43
2021/12/03 07:18:08;;;;;;;3.67;2.13;;;;;;;;;;5043203;28;20041;-43
2021/12/03 07:20:34;;;;;;;2.92;2.00;;;;;;;;;;5042148;28;20041;-42
2021/12/03 07:22:59;;;;;;;4.15;2.42;;;;;;;;;;5030357;28;20033;-42
2021/12/03 07:25:25;;;;;;;4.32;2.63;;;;;;;;;;5041641;28;20033;-42
2021/12/03 07:27:50;;;;;;;4.22;2.58;;;;;;;;;;5018844;28;20034;-43
2021/12/03 07:30:17;;;;;;;3.78;2.70;;;;;;;;;;5038424;28;20037;-43
2021/12/03 07:32:42;;;;;;;3.15;2.10;;;;;;;;;;5036763;28;20867;-42
2021/12/03 07:35:08;;;;;;;4.50;2.75;;;;;;;;;;5041646;28;20099;-45
2021/12/03 07:37:34;;;;;;;5.10;3.25;;;;;;;;;;5039321;28;20037;-42
2021/12/03 07:40:09;;;;;;;6.40;3.13;;;;;;;;;;5037563;28;20118;-42
2021/12/03 07:42:35;;;;;;;3.65;2.95;;;;;;;;;;5032490;28;20073;-43
2021/12/03 07:45:01;;;;;;;6.18;3.83;;;;;;;;;;5033964;28;20811;-42
2021/12/03 07:47:27;;;;;;;6.70;3.92;;;;;;;;;;5032746;28;20544;-42
2021/12/03 07:49:52;;;;;;;8.18;4.38;;;;;;;;;;5031801;28;20044;-42
2021/12/03 07:52:20;;;;;;;5.78;3.90;;;;;;;;;;5038239;28;20064;-44
2021/12/03 07:54:45;;;;;;;9.10;4.70;;;;;;;;;;5040742;28;20048;-43
2021/12/03 07:57:11;;;;;;;6.78;4.53;;;;;;;;;;5036438;28;20025;-43
2021/12/03 07:59:36;;;;;;;9.35;4.78;;;;;;;;;;5041388;28;20048;-44
2021/12/03 08:02:02;;;;;;;6.78;4.90;;;;;;;;;;5041258;28;20048;-42
2021/12/03 08:04:27;;;;;;;9.68;4.93;;;;;;;;;;5040601;28;20033;-44
2021/12/03 08:06:54;;;;;;;11.65;6.20;;;;;;;;;;5039287;28;20075;-44
2021/12/03 08:09:20;;;;;;;10.10;5.82;;;;;;;;;;5038461;28;20500;-47
2021/12/03 08:11:45;;;;;;;12.23;6.38;;;;;;;;;;5040350;28;20053;-47
2021/12/03 08:14:11;;;;;;;11.23;6.22;;;;;;;;;;5037272;28;20095;-43
2021/12/03 08:16:36;;;;;;;11.13;5.88;;;;;;;;;;5041221;28;20063;-47
2021/12/03 08:19:01;;;;;;;11.77;5.45;;;;;;;;;;5037877;28;20053;-45
2021/12/03 08:21:27;;;;;;;12.63;6.75;;;;;;;;;;5037989;28;20044;-46
2021/12/03 08:23:52;;;;;;;11.40;6.90;;;;;;;;;;4337876;28;10000692;-44
2021/12/03 08:26:17;;;;;;;11.15;5.88;;;;;;;;;;5021913;28;20275;-42
2021/12/03 08:28:43;;;;;;;16.98;6.90;;;;;;;;;;5037092;28;20124;-44
2021/12/03 08:31:14;;;;;;;13.68;6.70;;;;;;;;;;5044672;28;20374;-43
2021/12/03 08:33:40;;;;;;;11.13;6.15;;;;;;;;;;5034290;28;20072;-42
2021/12/03 08:36:05;;;;;;;13.02;6.75;;;;;;;;;;5033261;28;20061;-43
2021/12/03 08:38:30;;;;;;;13.10;6.40;;;;;;;;;;5029925;28;20486;-43
2021/12/03 08:40:55;;;;;;;14.75;7.70;;;;;;;;;;5033323;28;20484;-45
2021/12/03 08:43:21;;;;;;;13.38;6.65;;;;;;;;;;5033093;28;20038;-43
2021/12/03 08:45:52;;;;;;;15.32;6.75;;;;;;;;;;5026981;28;20029;-43
2021/12/03 08:48:18;;;;;;;14.65;6.63;;;;;;;;;;5032949;28;20747;-43
2021/12/03 08:50:53;;;;;;;19.45;7.45;;;;;;;;;;5036069;28;20136;-46
2021/12/03 08:56:03;;;;;;;18.73;8.70;;;;;;;;;;5031706;28;20052;-43
2021/12/03 08:58:28;;;;;;;14.15;7.95;;;;;;;;;;5034189;28;20033;-43
2021/12/03 09:00:54;;;;;;;26.30;9.10;;;;;;;;;;5044064;28;20075;-46
2021/12/03 09:03:19;;;;;;;18.05;9.07;;;;;;;;;;5037621;28;20546;-43
2021/12/03 09:05:46;;;;;;;22.05;8.98;;;;;;;;;;5036034;28;20048;-43
2021/12/03 09:08:12;;;;;;;24.63;9.57;;;;;;;;;;5036278;28;20075;-44
2021/12/03 09:10:37;;;;;;;21.55;10.13;;;;;;;;;;5040218;28;20033;-44
2021/12/03 09:13:03;;;;;;;28.05;10.55;;;;;;;;;;4682862;28;10000550;-43
2021/12/03 09:15:36;;;;;;;31.55;12.32;;;;;;;;;;5034555;28;20037;-42
2021/12/03 09:18:45;;;;;;;33.85;13.07;;;;;;;;;;5035242;28;20079;-43
2021/12/03 09:20:57;;;;;;;33.45;13.45;;;;;;;;;;5027290;28;20041;-42
2021/12/03 09:26:04;;;;;;;56.40;15.13;;;;;;;;;;5033712;28;20029;-43
2021/12/03 09:28:29;;;;;;;41.22;13.75;;;;;;;;;;5024539;28;20080;-43
2021/12/03 09:30:54;;;;;;;48.63;14.90;;;;;;;;;;5014672;28;20033;-44
2021/12/03 09:33:24;;;;;;;52.03;14.35;;;;;;;;;;5025077;28;20037;-43
2021/12/03 09:35:54;;;;;;;45.33;14.15;;;;;;;;;;5031148;28;20508;-45
2021/12/03 09:38:20;;;;;;;42.75;16.35;;;;;;;;;;5028098;28;20045;-44
2021/12/03 09:40:46;;;;;;;42.88;15.88;;;;;;;;;;5015529;28;20052;-44
2021/12/03 09:43:11;;;;;;;48.65;17.75;;;;;;;;;;5036691;28;20044;-43
2021/12/03 09:45:38;;;;;;;64.93;18.58;;;;;;;;;;5030019;28;20174;-43
2021/12/03 09:48:14;;;;;;;51.38;18.90;;;;;;;;;;5032131;28;20037;-43
2021/12/03 09:50:40;;;;;;;57.20;20.17;;;;;;;;;;5035356;28;20044;-43
2021/12/03 09:53:25;;;;;;;50.05;21.20;;;;;;;;;;5029363;28;20041;-43
2021/12/03 09:55:50;;;;;;;42.75;18.17;;;;;;;;;;5035230;28;20576;-43
2021/12/03 10:00:52;;;;;;;41.72;18.20;;;;;;;;;;5033751;28;20049;-44
2021/12/03 10:03:35;;;;;;;43.88;19.13;;;;;;;;;;5027167;28;20036;-43
2021/12/03 10:07:24;;;;;;;42.38;20.25;;;;;;;;;;5028442;28;20041;-43
2021/12/03 10:14:27;;;;;;;44.83;19.10;;;;;;;;;;5034745;28;20033;-43
2021/12/03 10:18:30;;;;;;;41.65;19.52;;;;;;;;;;5033288;28;22128;-43
2021/12/03 10:41:26;;;;;;;28.85;14.15;;;;;;;;;;5036135;28;20544;-44
2021/12/03 10:44:08;;;;;;;30.98;13.38;;;;;;;;;;5033422;28;20044;-43
2021/12/03 11:19:01;;;;;;;23.92;10.93;;;;;;;;;;5030799;28;20835;-43
2021/12/03 11:29:50;;;;;;;22.15;11.60;;;;;;;;;;5028163;28;20102;-42
2021/12/03 12:38:42;;;;;;;7.70;5.88;;;;;;;;;;5003552;28;20061;-43
2021/12/03 13:00:07;;;;;;;8.05;5.70;;;;;;;;;;5032621;28;20098;-43
2021/12/03 13:40:00;;;;;;;8.20;6.50;;;;;;;;;;5015113;28;20099;-42
2021/12/03 14:01:15;;;;;;;11.35;7.15;;;;;;;;;;5029903;28;20103;-42
2021/12/03 14:09:17;;;;;;;11.07;7.97;;;;;;;;;;5014605;28;20038;-42
2021/12/03 14:39:06;;;;;;;13.50;8.40;;;;;;;;;;5026132;28;20045;-42
2021/12/03 14:44:36;;;;;;;16.08;10.50;;;;;;;;;;5030898;28;20080;-42
2021/12/03 14:50:07;;;;;;;14.93;9.70;;;;;;;;;;5034299;28;20420;-42
2021/12/03 14:55:07;;;;;;;15.15;11.85;;;;;;;;;;5038163;28;20758;-41
2021/12/03 15:00:11;;;;;;;18.90;11.38;;;;;;;;;;5034585;28;20037;-41
2021/12/03 15:06:11;;;;;;;14.75;11.50;;;;;;;;;;4991825;28;20613;-41
2021/12/03 15:19:02;;;;;;;15.20;12.07;;;;;;;;;;5035674;28;20044;-44
2021/12/03 15:30:53;;;;;;;16.85;12.75;;;;;;;;;;4979682;28;20126;-44
2021/12/03 16:04:32;;;;;;;21.45;12.93;;;;;;;;;;4333748;28;10000922;-45
2021/12/03 16:12:28;;;;;;;22.35;15.63;;;;;;;;;;5017366;28;20084;-46
2021/12/03 16:15:08;;;;;;;22.90;14.20;;;;;;;;;;5016125;28;20439;-45
2021/12/03 16:17:57;;;;;;;24.80;15.18;;;;;;;;;;5032878;28;20124;-45
2021/12/03 16:47:01;;;;;;;25.35;16.45;;;;;;;;;;5023433;28;20144;-44
2021/12/03 16:52:07;;;;;;;30.15;17.92;;;;;;;;;;5026916;28;20053;-44
2021/12/03 16:54:46;;;;;;;25.15;18.55;;;;;;;;;;5027076;28;20048;-44
2021/12/03 16:57:13;;;;;;;25.02;17.40;;;;;;;;;;5027388;28;20044;-45
2021/12/03 16:59:43;;;;;;;28.85;18.42;;;;;;;;;;5027517;28;20161;-44
2021/12/03 17:02:15;;;;;;;30.17;18.70;;;;;;;;;;5029302;28;20033;-44
2021/12/03 17:10:15;;;;;;;25.83;16.95;;;;;;;;;;5032313;28;20091;-46
2021/12/03 17:13:03;;;;;;;25.75;17.35;;;;;;;;;;5013138;28;20034;-43
2021/12/03 17:16:02;;;;;;;28.98;18.38;;;;;;;;;;5015086;28;20049;-44
2021/12/03 17:46:31;;;;;;;30.52;17.88;;;;;;;;;;5045450;28;20590;-44
2021/12/03 17:56:43;;;;;;;27.38;16.00;;;;;;;;;;5043116;28;20033;-43
2021/12/03 17:59:18;;;;;;;28.40;17.98;;;;;;;;;;5045281;28;20623;-44
2021/12/03 18:01:51;;;;;;;25.05;15.68;;;;;;;;;;5040906;28;20037;-45
2021/12/03 18:07:12;;;;;;;30.83;17.80;;;;;;;;;;5019042;28;20041;-45
2021/12/03 18:45:14;;;;;;;32.35;18.90;;;;;;;;;;5043114;28;20672;-44
2021/12/03 18:47:45;;;;;;;32.85;18.60;;;;;;;;;;5041303;28;20036;-44
2021/12/03 18:52:59;;;;;;;30.92;16.75;;;;;;;;;;5030436;28;20064;-45
2021/12/03 18:55:32;;;;;;;28.67;16.42;;;;;;;;;;5038090;28;20123;-47
2021/12/03 18:58:01;;;;;;;28.30;18.30;;;;;;;;;;5037969;28;20025;-45
2021/12/03 19:00:28;;;;;;;30.60;18.45;;;;;;;;;;5034445;28;20033;-43
2021/12/03 19:02:56;;;;;;;31.33;20.00;;;;;;;;;;5039129;28;20507;-44
2021/12/03 19:06:27;;;;;;;31.80;19.83;;;;;;;;;;5039237;28;20182;-43
2021/12/03 19:08:21;;;;;;;28.92;18.10;;;;;;;;;;5021255;28;20041;-46
2021/12/03 19:10:51;;;;;;;30.90;17.80;;;;;;;;;;5040584;28;20479;-44
2021/12/03 19:13:25;;;;;;;30.40;18.35;;;;;;;;;;5039253;28;20433;-43
2021/12/03 19:15:52;;;;;;;28.08;18.02;;;;;;;;;;5042480;28;20036;-44
2021/12/03 19:18:22;;;;;;;31.55;20.08;;;;;;;;;;5039595;28;21401;-43
2021/12/03 19:20:48;;;;;;;;;;;;;;;;;;5039586;28;20045;-43
2021/12/03 19:23:13;;;;;;;32.92;18.70;;;;;;;;;;5035634;28;19923;-44
2021/12/03 19:25:38;;;;;;;36.15;18.85;;;;;;;;;;5038309;28;20032;-46
2021/12/03 19:28:04;;;;;;;33.55;19.67;;;;;;;;;;5040148;28;20114;-46
2021/12/03 19:30:29;;;;;;;35.17;18.33;;;;;;;;;;5032763;28;20033;-43
2021/12/03 19:32:54;;;;;;;28.45;18.92;;;;;;;;;;5038212;28;20029;-46
2021/12/03 19:35:20;;;;;;;29.27;17.73;;;;;;;;;;5037732;28;20030;-44
2021/12/03 19:37:49;;;;;;;26.50;17.27;;;;;;;;;;5037468;28;20037;-43
2021/12/03 19:40:15;;;;;;;26.83;17.65;;;;;;;;;;5009630;28;20073;-44
2021/12/03 19:45:11;;;;;;;28.83;18.80;;;;;;;;;;5031704;28;20136;-45
2021/12/03 19:47:59;;;;;;;30.93;18.10;;;;;;;;;;5031672;28;20095;-44
2021/12/03 19:50:39;;;;;;;26.35;16.88;;;;;;;;;;5031548;28;20049;-45
2021/12/03 19:55:32;;;;;;;25.50;16.50;;;;;;;;;;5028306;28;19917;-45
2021/12/03 19:57:57;;;;;;;27.65;15.88;;;;;;;;;;5033374;28;20091;-44
2021/12/03 20:00:24;;;;;;;31.88;17.27;;;;;;;;;;5040017;28;20044;-44
2021/12/03 20:02:50;;;;;;;30.17;17.30;;;;;;;;;;5035631;28;20036;-44
2021/12/03 20:05:15;;;;;;;29.15;16.95;;;;;;;;;;5030254;28;20037;-44
2021/12/03 20:07:40;;;;;;;33.30;16.55;;;;;;;;;;5036033;28;20078;-43
2021/12/03 20:10:10;;;;;;;26.38;16.45;;;;;;;;;;5031518;28;20130;-43
2021/12/03 20:12:36;;;;;;;29.02;17.35;;;;;;;;;;5035728;28;20061;-44
2021/12/03 20:15:09;;;;;;;27.45;15.15;;;;;;;;;;4834309;28;10000506;-44
2021/12/03 20:17:41;;;;;;;27.95;16.38;;;;;;;;;;5022254;28;20052;-44
2021/12/03 20:20:08;;;;;;;25.17;15.80;;;;;;;;;;5034370;28;20427;-47
2021/12/03 20:22:43;;;;;;;29.08;16.48;;;;;;;;;;5037124;28;20033;-43
2021/12/03 20:27:53;;;;;;;27.83;16.17;;;;;;;;;;5041471;28;20021;-44
2021/12/03 20:38:01;;;;;;;25.98;15.68;;;;;;;;;;5033345;28;20033;-46
2021/12/03 20:40:30;;;;;;;24.20;15.88;;;;;;;;;;5030469;28;20515;-43
2021/12/03 20:43:24;;;;;;;23.50;15.52;;;;;;;;;;5039585;28;20103;-44
2021/12/03 21:09:41;;;;;;;25.02;13.70;;;;;;;;;;5034683;28;20157;-43
2021/12/03 21:12:17;;;;;;;20.83;13.18;;;;;;;;;;5038469;28;20090;-44
2021/12/03 21:14:50;;;;;;;21.95;13.20;;;;;;;;;;5019222;28;20080;-44
2021/12/03 21:22:31;;;;;;;14.80;10.45;;;;;;;;;;5025049;28;20030;-43
2021/12/03 21:25:01;;;;;;;17.05;10.90;;;;;;;;;;5019545;28;20034;-43
2021/12/03 21:27:35;;;;;;;12.25;8.80;;;;;;;;;;5009058;28;20048;-44
2021/12/03 21:30:13;;;;;;;13.27;9.57;;;;;;;;;;5016374;28;20647;-44
2021/12/03 21:43:16;;;;;;;90.90;17.73;;;;;;;;;;5036812;28;20128;-44
2021/12/03 21:45:41;;;;;;;66.55;16.30;;;;;;;;;;5037098;28;20148;-42
2021/12/03 21:48:08;;;;;;;51.10;13.35;;;;;;;;;;5042923;28;20591;-43
2021/12/03 21:50:34;;;;;;;64.18;14.23;;;;;;;;;;5036176;28;20465;-42
2021/12/03 21:53:00;;;;;;;61.92;14.85;;;;;;;;;;5034015;28;20901;-43
2021/12/03 21:55:26;;;;;;;65.13;17.20;;;;;;;;;;5022304;28;20072;-43
2021/12/03 21:57:53;;;;;;;88.30;19.20;;;;;;;;;;5033476;28;20033;-44
2021/12/03 22:00:18;;;;;;;73.00;16.15;;;;;;;;;;5023992;28;20162;-42
2021/12/03 22:02:44;;;;;;;78.90;16.20;;;;;;;;;;5037903;28;20500;-43
2021/12/03 22:05:09;;;;;;;69.18;18.10;;;;;;;;;;5034177;28;20825;-41
2021/12/03 22:07:34;;;;;;;61.88;16.98;;;;;;;;;;5032608;28;20140;-42
2021/12/03 22:10:00;;;;;;;52.13;14.32;;;;;;;;;;5031411;28;20120;-43
2021/12/03 22:12:25;;;;;;;77.85;16.83;;;;;;;;;;5037644;28;20986;-43
2021/12/03 22:14:50;;;;;;;68.97;18.52;;;;;;;;;;5037635;28;20527;-43
2021/12/03 22:17:16;;;;;;;53.40;15.65;;;;;;;;;;5028619;28;20037;-42
2021/12/03 22:19:41;;;;;;;83.18;18.42;;;;;;;;;;5035539;28;20400;-43
2021/12/03 22:22:07;;;;;;;68.22;14.32;;;;;;;;;;5042811;28;20202;-42
2021/12/03 22:24:36;;;;;;;108.68;16.27;;;;;;;;;;5042725;28;20136;-43
2021/12/03 22:27:01;;;;;;;81.05;20.65;;;;;;;;;;5038160;28;20030;-43
2021/12/03 22:29:27;;;;;;;69.13;16.63;;;;;;;;;;5038887;28;20044;-44
2021/12/03 22:31:53;;;;;;;71.18;17.83;;;;;;;;;;5039710;28;21434;-44
2021/12/03 22:34:18;;;;;;;91.68;23.85;;;;;;;;;;5039901;28;20041;-42
2021/12/03 22:36:44;;;;;;;77.13;18.55;;;;;;;;;;5035935;28;20374;-44
2021/12/03 22:39:09;;;;;;;77.72;19.92;;;;;;;;;;5035542;28;20115;-41
2021/12/03 22:41:37;;;;;;;82.35;22.05;;;;;;;;;;5035154;28;20131;-43